createdAt,value
2022-11-19T00:01:32.213Z,98241.84
2022-11-19T00:04:33.780Z,98245.84
2022-11-19T00:07:35.651Z,98250.13
2022-11-19T00:10:37.915Z,98257.03
2022-11-19T00:13:40.084Z,98259.66
2022-11-19T00:16:42.009Z,98255.88
2022-11-19T00:19:43.547Z,98257.97
2022-11-19T00:22:45.445Z,98261.66
2022-11-19T00:25:46.987Z,98266.72
2022-11-19T00:28:48.633Z,98261.69
2022-11-19T00:31:50.289Z,98267.44
2022-11-19T00:34:51.804Z,98271.69
2022-11-19T00:37:53.355Z,98278.84
2022-11-19T00:40:55.034Z,98280.72
2022-11-19T00:43:56.698Z,98285.50
2022-11-19T00:46:58.256Z,98289.75
2022-11-19T00:49:59.815Z,98286.56
2022-11-19T00:53:01.407Z,98291.88
2022-11-19T00:56:03.944Z,98292.41
2022-11-19T00:59:05.490Z,98290.84
2022-11-19T01:02:07.090Z,98295.88
2022-11-19T01:05:08.790Z,98306.97
2022-11-19T01:08:10.816Z,98304.63
2022-11-19T01:11:19.517Z,98307.84
2022-11-19T01:14:21.065Z,98314.44
2022-11-19T01:17:22.603Z,98317.09
2022-11-19T01:20:24.239Z,98312.16
2022-11-19T01:23:25.824Z,98312.72
2022-11-19T01:26:27.685Z,98320.13
2022-11-19T01:29:29.221Z,98323.34
2022-11-19T01:32:30.791Z,98330.50
2022-11-19T01:35:32.364Z,98332.41
2022-11-19T01:38:33.902Z,98336.41
2022-11-19T01:41:35.411Z,98326.38
2022-11-19T01:44:52.108Z,98332.50
2022-11-19T01:47:53.676Z,98343.59
2022-11-19T01:50:56.221Z,98340.97
2022-11-19T01:53:59.707Z,98344.16
2022-11-19T01:57:06.384Z,98347.88
2022-11-19T02:00:08.354Z,98359.00
2022-11-19T02:03:10.765Z,98352.91
2022-11-19T02:06:12.288Z,98355.00
2022-11-19T02:09:14.036Z,98349.72
2022-11-19T02:12:15.514Z,98360.59
2022-11-19T02:15:25.696Z,98359.00
2022-11-19T02:18:46.063Z,98358.72
2022-11-19T02:21:59.862Z,98367.47
2022-11-19T02:25:20.432Z,98369.84
2022-11-19T02:28:28.124Z,98366.94
2022-11-19T02:31:48.419Z,98361.91
2022-11-19T02:34:57.944Z,98368.00
2022-11-19T02:38:00.889Z,98373.31
2022-11-19T02:41:33.310Z,98368.25
2022-11-19T02:45:02.460Z,98377.25
2022-11-19T02:48:09.361Z,98384.94
2022-11-19T02:51:11.152Z,98384.69
2022-11-19T02:54:12.848Z,98382.84
2022-11-19T02:57:14.450Z,98393.69
2022-11-19T03:00:34.800Z,98387.88
2022-11-19T03:03:54.988Z,98382.28
2022-11-19T03:07:10.239Z,98385.75
2022-11-19T03:10:11.964Z,98399.50
2022-11-19T03:13:45.109Z,98391.84
2022-11-19T03:16:51.547Z,98399.50
2022-11-19T03:20:08.757Z,98404.00
2022-11-19T03:23:10.273Z,98394.50
2022-11-19T03:26:25.800Z,98400.06
2022-11-19T03:29:27.725Z,98389.47
2022-11-19T03:32:31.325Z,98399.78
2022-11-19T03:35:37.702Z,98402.97
2022-11-19T03:38:46.779Z,98410.38
2022-11-19T03:41:49.006Z,98414.59
2022-11-19T03:44:51.246Z,98406.38
2022-11-19T03:47:52.845Z,98405.84
2022-11-19T03:50:55.046Z,98410.34
2022-11-19T03:53:56.628Z,98411.91
2022-11-19T03:56:58.262Z,98424.63
2022-11-19T03:59:59.863Z,98424.59
2022-11-19T04:03:01.403Z,98421.94
2022-11-19T04:06:03.340Z,98425.88
2022-11-19T04:09:04.916Z,98436.97
2022-11-19T04:12:07.331Z,98425.56
2022-11-19T04:15:12.475Z,98429.53
2022-11-19T04:18:14.017Z,98442.53
2022-11-19T04:21:15.603Z,98449.91
2022-11-19T04:24:22.129Z,98438.31
2022-11-19T04:27:23.769Z,98449.44
2022-11-19T04:30:25.270Z,98441.75
2022-11-19T04:33:27.028Z,98454.16
2022-11-19T04:36:28.582Z,98452.25
2022-11-19T04:39:30.220Z,98444.63
2022-11-19T04:42:31.744Z,98445.97
2022-11-19T04:45:33.326Z,98446.53
2022-11-19T04:48:34.904Z,98449.13
2022-11-19T04:51:36.498Z,98450.19
2022-11-19T04:54:38.120Z,98458.16
2022-11-19T04:57:39.761Z,98462.69
2022-11-19T05:00:41.307Z,98464.28
2022-11-19T05:03:42.886Z,98470.38
2022-11-19T05:06:44.452Z,98472.72
2022-11-19T05:09:46.004Z,98474.34
2022-11-19T05:12:47.546Z,98486.28
2022-11-19T05:15:49.120Z,98499.47
2022-11-19T05:18:50.705Z,98506.88
2022-11-19T05:21:52.397Z,98512.66
2022-11-19T05:24:53.982Z,98517.63
2022-11-19T05:27:55.534Z,98525.56
2022-11-19T05:30:57.130Z,98528.78
2022-11-19T05:33:58.747Z,98525.22
2022-11-19T05:37:00.313Z,98537.66
2022-11-19T05:40:02.489Z,98531.56
2022-11-19T05:43:04.900Z,98529.97
2022-11-19T05:46:06.535Z,98523.63
2022-11-19T05:49:08.064Z,98526.81
2022-11-19T05:52:10.356Z,98533.97
2022-11-19T05:55:11.910Z,98538.47
2022-11-19T05:58:13.995Z,98531.06
2022-11-19T06:01:15.621Z,98539.53
2022-11-19T06:04:18.103Z,98544.31
2022-11-19T06:07:19.704Z,98541.19
2022-11-19T06:10:21.337Z,98540.66
2022-11-19T06:13:22.874Z,98536.72
2022-11-19T06:16:24.448Z,98533.84
2022-11-19T06:19:26.318Z,98536.53
2022-11-19T06:22:27.949Z,98545.00
2022-11-19T06:25:29.465Z,98543.66
2022-11-19T06:28:31.130Z,98538.91
2022-11-19T06:31:32.879Z,98533.84
2022-11-19T06:34:34.435Z,98534.34
2022-11-19T06:37:35.987Z,98536.97
2022-11-19T06:40:37.707Z,98540.66
2022-11-19T06:43:39.287Z,98540.09
2022-11-19T06:46:41.522Z,98552.28
2022-11-19T06:49:43.039Z,98540.59
2022-11-19T06:52:44.677Z,98542.75
2022-11-19T06:55:46.225Z,98551.75
2022-11-19T06:58:47.758Z,98545.91
2022-11-19T07:01:49.384Z,98547.50
2022-11-19T07:04:50.935Z,98549.09
2022-11-19T07:07:52.518Z,98556.25
2022-11-19T07:10:54.307Z,98564.47
2022-11-19T07:13:59.026Z,98577.69
2022-11-19T07:17:00.581Z,98568.72
2022-11-19T07:20:02.161Z,98574.03
2022-11-19T07:23:03.711Z,98577.75
2022-11-19T07:26:05.290Z,98573.28
2022-11-19T07:29:07.360Z,98583.59
2022-11-19T07:32:08.902Z,98581.28
2022-11-19T07:35:10.494Z,98586.31
2022-11-19T07:38:12.095Z,98592.41
2022-11-19T07:41:32.286Z,98599.31
2022-11-19T07:44:33.856Z,98599.00
2022-11-19T07:47:35.384Z,98601.66
2022-11-19T07:50:37.499Z,98597.94
2022-11-19T07:53:39.116Z,98599.50
2022-11-19T07:56:40.713Z,98605.34
2022-11-19T07:59:42.246Z,98605.59
2022-11-19T08:02:43.782Z,98613.03
2022-11-19T08:05:45.443Z,98618.03
2022-11-19T08:08:47.005Z,98619.63
2022-11-19T08:11:48.556Z,98626.00
2022-11-19T08:14:50.103Z,98637.38
2022-11-19T08:18:10.391Z,98636.59
2022-11-19T08:21:12.105Z,98638.44
2022-11-19T08:24:14.069Z,98639.34
2022-11-19T08:27:15.668Z,98641.97
2022-11-19T08:30:17.249Z,98642.00
2022-11-19T08:33:18.879Z,98638.53
2022-11-19T08:36:20.457Z,98640.97
2022-11-19T08:39:22.043Z,98640.72
2022-11-19T08:42:47.215Z,98645.50
2022-11-19T08:45:53.814Z,98644.69
2022-11-19T08:48:55.378Z,98637.28
2022-11-19T08:51:57.628Z,98648.94
2022-11-19T08:54:59.166Z,98647.34
2022-11-19T08:58:04.341Z,98648.69
2022-11-19T09:01:15.701Z,98647.34
2022-11-19T09:04:17.548Z,98642.56
2022-11-19T09:07:19.346Z,98651.31
2022-11-19T09:10:21.029Z,98655.03
2022-11-19T09:13:22.564Z,98642.03
2022-11-19T09:16:24.101Z,98653.69
2022-11-19T09:19:25.607Z,98645.97
2022-11-19T09:22:27.268Z,98646.53
2022-11-19T09:25:29.311Z,98653.41
2022-11-19T09:28:31.062Z,98637.25
2022-11-19T09:31:32.637Z,98642.25
2022-11-19T09:34:35.256Z,98642.50
2022-11-19T09:37:36.764Z,98645.09
2022-11-19T09:40:38.307Z,98641.88
2022-11-19T09:43:45.556Z,98650.63
2022-11-19T09:46:50.135Z,98651.69
2022-11-19T09:49:56.008Z,98654.63
2022-11-19T09:53:02.605Z,98655.69
2022-11-19T09:56:04.443Z,98663.88
2022-11-19T09:59:25.561Z,98660.44
2022-11-19T10:02:27.298Z,98662.56
2022-11-19T10:05:30.616Z,98661.22
2022-11-19T10:08:50.500Z,98673.16
2022-11-19T10:12:10.693Z,98665.72
2022-11-19T10:15:15.072Z,98682.41
2022-11-19T10:18:34.903Z,98683.47
2022-11-19T10:21:42.484Z,98681.41
2022-11-19T10:24:44.932Z,98686.41
2022-11-19T10:27:47.880Z,98681.91
2022-11-19T10:30:55.301Z,98678.47
2022-11-19T10:34:02.885Z,98679.84
2022-11-19T10:37:11.359Z,98679.06
2022-11-19T10:40:14.327Z,98687.50
2022-11-19T10:43:24.096Z,98687.50
2022-11-19T10:46:26.147Z,98686.16
2022-11-19T10:49:27.683Z,98678.47
2022-11-19T10:52:30.913Z,98688.28
2022-11-19T10:55:34.694Z,98689.06
2022-11-19T10:58:39.859Z,98694.97
2022-11-19T11:01:42.540Z,98690.69
2022-11-19T11:05:00.900Z,98683.28
2022-11-19T11:08:02.517Z,98696.00
2022-11-19T11:11:04.162Z,98685.91
2022-11-19T11:14:24.527Z,98683.53
2022-11-19T11:17:27.579Z,98674.84
2022-11-19T11:20:29.376Z,98672.94
2022-11-19T11:23:31.187Z,98671.91
2022-11-19T11:26:33.915Z,98666.84
2022-11-19T11:29:35.564Z,98672.94
2022-11-19T11:32:37.151Z,98660.25
2022-11-19T11:35:38.744Z,98664.47
2022-11-19T11:38:42.507Z,98668.22
2022-11-19T11:45:05.983Z,98663.19
2022-11-19T11:48:08.183Z,98661.34
2022-11-19T11:51:25.898Z,98652.84
2022-11-19T11:54:27.568Z,98656.03
2022-11-19T11:57:30.575Z,98649.69
2022-11-19T12:00:33.752Z,98651.28
2022-11-19T12:03:49.338Z,98637.69
2022-11-19T12:07:00.024Z,98646.19
2022-11-19T12:10:20.555Z,98648.81
2022-11-19T12:13:22.096Z,98635.53
2022-11-19T12:16:34.764Z,98638.25
2022-11-19T12:19:42.590Z,98631.59
2022-11-19T12:22:59.467Z,98637.19
2022-11-19T12:26:04.529Z,98632.09
2022-11-19T12:29:27.423Z,98622.56
2022-11-19T12:32:32.002Z,98623.59
2022-11-19T12:35:36.556Z,98617.75
2022-11-19T12:38:51.028Z,98622.75
2022-11-19T12:42:01.799Z,98614.53
2022-11-19T12:45:12.668Z,98626.69
2022-11-19T12:48:20.360Z,98618.16
2022-11-19T12:51:25.363Z,98618.38
2022-11-19T12:54:35.470Z,98609.13
2022-11-19T12:57:45.956Z,98606.75
2022-11-19T13:00:51.371Z,98605.44
2022-11-19T13:03:57.452Z,98590.34
2022-11-19T13:06:59.049Z,98590.91
2022-11-19T13:10:06.315Z,98587.69
2022-11-19T13:13:08.136Z,98589.75
2022-11-19T13:16:14.585Z,98593.47
2022-11-19T13:19:27.452Z,98587.38
2022-11-19T13:22:33.304Z,98586.50
2022-11-19T13:25:45.383Z,98584.41
2022-11-19T13:28:48.719Z,98587.59
2022-11-19T13:32:13.558Z,98592.88
2022-11-19T13:35:18.235Z,98595.31
2022-11-19T13:38:25.852Z,98591.38
2022-11-19T13:41:30.546Z,98589.22
2022-11-19T13:44:41.331Z,98586.59
2022-11-19T13:47:45.996Z,98584.75
2022-11-19T13:50:49.064Z,98581.03
2022-11-19T13:54:02.403Z,98576.00
2022-11-19T13:57:04.853Z,98576.19
2022-11-19T14:00:07.479Z,98579.13
2022-11-19T14:03:29.192Z,98579.63
2022-11-19T14:09:58.591Z,98573.28
2022-11-19T14:13:18.976Z,98575.41
2022-11-19T14:16:57.591Z,98572.97
2022-11-19T14:20:17.788Z,98577.75
2022-11-19T14:23:58.279Z,98561.09
2022-11-19T14:27:00.497Z,98566.91
2022-11-19T14:30:03.075Z,98563.19
2022-11-19T14:33:05.398Z,98554.50
2022-11-19T14:36:11.153Z,98548.44
2022-11-19T14:39:17.119Z,98547.88
2022-11-19T14:42:19.676Z,98546.31
2022-11-19T14:45:21.468Z,98551.03
2022-11-19T14:48:23.001Z,98548.44
2022-11-19T14:51:35.229Z,98554.75
2022-11-19T14:54:40.204Z,98551.03
2022-11-19T14:57:41.982Z,98551.28
2022-11-19T15:00:43.492Z,98530.63
2022-11-19T15:04:04.050Z,98534.56
2022-11-19T15:07:09.927Z,98527.97
2022-11-19T15:10:11.499Z,98521.88
2022-11-19T15:13:16.387Z,98522.41
2022-11-19T15:16:21.509Z,98531.38
2022-11-19T15:19:29.454Z,98531.38
2022-11-19T15:22:40.239Z,98536.38
2022-11-19T15:25:47.753Z,98528.97
2022-11-19T15:28:59.160Z,98522.34
2022-11-19T15:32:19.515Z,98530.53
2022-11-19T15:35:23.876Z,98521.50
2022-11-19T15:38:30.199Z,98528.66
2022-11-19T15:41:32.885Z,98517.28
2022-11-19T15:44:37.517Z,98517.81
2022-11-19T15:47:41.077Z,98510.41
2022-11-19T15:50:43.116Z,98514.13
2022-11-19T15:54:00.960Z,98517.28
2022-11-19T15:57:06.753Z,98519.94
2022-11-19T16:00:14.685Z,98516.22
2022-11-19T16:03:16.677Z,98513.84
2022-11-19T16:06:22.912Z,98515.94
2022-11-19T16:09:25.221Z,98517.25
2022-11-19T16:12:45.993Z,98518.59
2022-11-19T16:16:09.833Z,98520.19
2022-11-19T16:19:18.484Z,98517.56
2022-11-19T16:22:20.287Z,98516.50
2022-11-19T16:25:35.212Z,98505.16
2022-11-19T16:28:36.820Z,98501.50
2022-11-19T16:31:38.366Z,98498.56
2022-11-19T16:34:40.616Z,98495.09
2022-11-19T16:37:42.191Z,98506.50
2022-11-19T16:41:02.948Z,98504.84
2022-11-19T16:44:14.615Z,98501.16
2022-11-19T16:47:20.925Z,98509.63
2022-11-19T16:50:28.824Z,98505.34
2022-11-19T16:53:48.595Z,98502.91
2022-11-19T16:56:50.081Z,98501.09
2022-11-19T16:59:52.529Z,98499.94
2022-11-19T17:02:54.085Z,98504.22
2022-11-19T17:05:55.737Z,98501.56
2022-11-19T17:08:58.667Z,98494.94
2022-11-19T17:12:18.664Z,98494.44
2022-11-19T17:15:39.178Z,98489.13
2022-11-19T17:18:41.170Z,98490.41
2022-11-19T17:21:46.141Z,98485.38
2022-11-19T17:24:48.057Z,98474.25
2022-11-19T17:27:50.239Z,98479.84
2022-11-19T17:30:51.823Z,98485.38
2022-11-19T17:33:57.215Z,98475.56
2022-11-19T17:36:58.878Z,98481.91
2022-11-19T17:40:00.512Z,98468.72
2022-11-19T17:43:20.960Z,98465.53
2022-11-19T17:46:23.148Z,98469.25
2022-11-19T17:49:25.127Z,98463.97
2022-11-19T17:52:28.092Z,98468.19
2022-11-19T17:55:29.809Z,98466.34
2022-11-19T17:58:31.648Z,98465.25
2022-11-19T18:01:33.359Z,98465.53
2022-11-19T18:04:34.959Z,98459.97
2022-11-19T18:07:36.521Z,98453.88
2022-11-19T18:10:38.331Z,98459.47
2022-11-19T18:13:40.333Z,98455.97
2022-11-19T18:16:43.616Z,98455.97
2022-11-19T18:19:45.178Z,98459.16
2022-11-19T18:22:48.128Z,98457.03
2022-11-19T18:25:49.862Z,98455.94
2022-11-19T18:28:51.430Z,98452.00
2022-11-19T18:31:53.401Z,98452.50
2022-11-19T18:34:57.995Z,98452.22
2022-11-19T18:38:02.200Z,98451.16
2022-11-19T18:41:03.783Z,98437.94
2022-11-19T18:44:24.003Z,98449.88
2022-11-19T18:47:26.432Z,98433.19
2022-11-19T18:50:30.321Z,98440.06
2022-11-19T18:53:32.088Z,98438.47
2022-11-19T18:56:33.587Z,98443.75
2022-11-19T18:59:35.247Z,98431.06
2022-11-19T19:02:37.057Z,98432.91
2022-11-19T19:05:39.859Z,98429.72
2022-11-19T19:08:41.509Z,98419.41
2022-11-19T19:12:01.862Z,98421.53
2022-11-19T19:15:03.490Z,98422.31
2022-11-19T19:18:07.708Z,98421.53
2022-11-19T19:21:19.528Z,98405.88
2022-11-19T19:24:21.841Z,98420.38
2022-11-19T19:27:23.528Z,98416.19
2022-11-19T19:30:25.173Z,98417.50
2022-11-19T19:33:26.863Z,98422.50
2022-11-19T19:36:28.984Z,98415.38
2022-11-19T19:39:40.499Z,98408.44
2022-11-19T19:42:42.328Z,98401.88
2022-11-19T19:45:44.026Z,98396.59
2022-11-19T19:48:47.164Z,98398.94
2022-11-19T19:51:48.728Z,98393.13
2022-11-19T19:54:50.402Z,98402.84
2022-11-19T19:57:52.009Z,98401.03
2022-11-19T20:00:53.566Z,98392.50
2022-11-19T20:04:00.511Z,98405.94
2022-11-19T20:07:02.207Z,98392.19
2022-11-19T20:10:04.119Z,98384.25
2022-11-19T20:13:24.050Z,98391.09
2022-11-19T20:16:29.797Z,98385.53
2022-11-19T20:19:31.433Z,98389.44
2022-11-19T20:22:32.960Z,98386.75
2022-11-19T20:25:34.607Z,98391.47
2022-11-19T20:28:36.233Z,98386.19
2022-11-19T20:31:37.904Z,98378.81
2022-11-19T20:34:39.908Z,98379.28
2022-11-19T20:37:41.887Z,98370.56
2022-11-19T20:40:43.993Z,98362.88
2022-11-19T20:44:04.419Z,98382.16
2022-11-19T20:47:05.952Z,98379.50
2022-11-19T20:50:07.807Z,98374.00
2022-11-19T20:53:09.325Z,98380.38
2022-11-19T20:56:10.999Z,98375.59
2022-11-19T20:59:12.766Z,98371.91
2022-11-19T21:02:14.389Z,98380.59
2022-11-19T21:05:16.002Z,98367.16
2022-11-19T21:08:18.751Z,98360.25
2022-11-19T21:11:20.313Z,98352.91
2022-11-19T21:14:21.995Z,98340.75
2022-11-19T21:17:23.518Z,98331.22
2022-11-19T21:20:25.110Z,98331.22
2022-11-19T21:23:26.960Z,98325.94
2022-11-19T21:26:28.653Z,98338.91
2022-11-19T21:29:30.153Z,98322.81
2022-11-19T21:32:31.770Z,98332.56
2022-11-19T21:35:33.321Z,98325.72
2022-11-19T21:38:35.059Z,98320.44
2022-11-19T21:41:37.177Z,98317.53
2022-11-19T21:44:38.893Z,98316.44
2022-11-19T21:47:41.164Z,98294.81
2022-11-19T21:50:42.847Z,98299.03
2022-11-19T21:53:44.436Z,98290.06
2022-11-19T21:56:47.224Z,98294.25
2022-11-19T21:59:48.865Z,98300.34
2022-11-19T22:02:50.544Z,98284.53
2022-11-19T22:05:59.248Z,98285.88
2022-11-19T22:09:00.837Z,98278.25
2022-11-19T22:12:02.426Z,98280.09
2022-11-19T22:15:04.479Z,98274.03
2022-11-19T22:18:06.156Z,98272.81
2022-11-19T22:21:07.744Z,98272.38
2022-11-19T22:24:09.315Z,98260.25
2022-11-19T22:27:10.967Z,98257.09
2022-11-19T22:30:12.718Z,98248.91
2022-11-19T22:33:14.946Z,98253.63
2022-11-19T22:36:16.599Z,98248.09
2022-11-19T22:39:18.737Z,98236.47
2022-11-19T22:42:20.381Z,98229.84
2022-11-19T22:45:21.948Z,98223.94
2022-11-19T22:48:23.480Z,98218.91
2022-11-19T22:51:26.512Z,98208.06
2022-11-19T22:54:28.092Z,98207.78
2022-11-19T22:57:29.624Z,98209.06
2022-11-19T23:00:38.393Z,98201.97
2022-11-19T23:03:39.987Z,98198.81
2022-11-19T23:06:41.777Z,98189.28
2022-11-19T23:09:43.445Z,98180.81
2022-11-19T23:13:03.577Z,98185.84
2022-11-19T23:16:14.279Z,98196.16
2022-11-19T23:19:19.178Z,98189.28
2022-11-19T23:22:21.187Z,98176.34
2022-11-19T23:25:22.746Z,98183.50
2022-11-19T23:28:25.128Z,98182.94
2022-11-19T23:31:30.763Z,98185.31
2022-11-19T23:34:32.339Z,98175.53
2022-11-19T23:37:33.931Z,98171.81
2022-11-19T23:40:35.610Z,98167.31
2022-11-19T23:43:37.766Z,98158.63
2022-11-19T23:46:39.972Z,98152.53
2022-11-19T23:49:41.505Z,98157.03
2022-11-19T23:52:45.008Z,98157.03
2022-11-19T23:55:47.547Z,98149.63
2022-11-19T23:58:49.179Z,98147.78
